createdAt,value
2023-04-02T00:01:27.093Z,9.42
2023-04-02T00:04:12.113Z,9.38
2023-04-02T00:06:45.532Z,9.40
2023-04-02T00:09:18.216Z,9.41
2023-04-02T00:11:49.406Z,9.42
2023-04-02T00:14:28.698Z,9.42
2023-04-02T00:16:58.200Z,9.42
2023-04-02T00:19:49.212Z,9.45
2023-04-02T00:22:29.170Z,9.45
2023-04-02T00:25:01.349Z,9.42
2023-04-02T00:27:35.363Z,9.39
2023-04-02T00:30:04.494Z,9.39
2023-04-02T00:32:39.717Z,9.41
2023-04-02T00:35:38.580Z,9.41
2023-04-02T00:38:31.063Z,9.37
2023-04-02T00:41:01.264Z,9.33
2023-04-02T00:43:31.970Z,9.33
2023-04-02T00:46:15.549Z,9.37
2023-04-02T00:49:09.727Z,9.40
2023-04-02T00:51:43.090Z,9.35
2023-04-02T00:54:18.232Z,9.33
2023-04-02T00:56:49.466Z,9.36
2023-04-02T00:59:36.957Z,9.38
2023-04-02T01:02:17.787Z,9.39
2023-04-02T01:05:11.735Z,9.36
2023-04-02T01:07:48.145Z,9.35
2023-04-02T01:10:23.973Z,9.36
2023-04-02T01:13:19.415Z,9.37
2023-04-02T01:16:23.928Z,9.31
2023-04-02T01:18:58.737Z,9.27
2023-04-02T01:21:53.157Z,9.27
2023-04-02T01:24:59.316Z,9.29
2023-04-02T01:27:44.089Z,9.27
2023-04-02T01:30:12.823Z,9.23
2023-04-02T01:32:43.287Z,9.22
2023-04-02T01:35:12.141Z,9.22
2023-04-02T01:38:00.394Z,9.24
2023-04-02T01:40:41.155Z,9.24
2023-04-02T01:43:26.837Z,9.21
2023-04-02T01:45:58.294Z,9.18
2023-04-02T01:48:30.289Z,9.19
2023-04-02T01:51:01.482Z,9.18
2023-04-02T01:53:30.683Z,9.14
2023-04-02T01:56:00.644Z,9.15
2023-04-02T01:58:31.944Z,9.16
2023-04-02T02:01:07.061Z,9.14
2023-04-02T02:03:42.810Z,9.11
2023-04-02T02:06:16.669Z,9.12
2023-04-02T02:08:54.488Z,9.14
2023-04-02T02:11:25.133Z,9.11
2023-04-02T02:14:19.768Z,9.09
2023-04-02T02:16:48.679Z,9.10
2023-04-02T02:19:45.035Z,9.11
2023-04-02T02:22:32.832Z,9.10
2023-04-02T02:25:02.685Z,9.08
2023-04-02T02:27:46.801Z,9.08
2023-04-02T02:30:34.947Z,9.10
2023-04-02T02:33:11.048Z,9.09
2023-04-02T02:36:00.968Z,9.05
2023-04-02T02:38:39.415Z,9.04
2023-04-02T02:41:34.734Z,9.07
2023-04-02T02:44:09.601Z,9.09
2023-04-02T02:46:52.727Z,9.08
2023-04-02T02:49:28.546Z,9.05
2023-04-02T02:52:07.812Z,9.07
2023-04-02T02:54:59.881Z,9.09
2023-04-02T02:57:34.472Z,9.11
2023-04-02T03:00:06.645Z,9.10
2023-04-02T03:02:40.202Z,9.10
2023-04-02T03:05:09.512Z,9.12
2023-04-02T03:07:38.616Z,9.14
2023-04-02T03:10:30.847Z,9.14
2023-04-02T03:13:25.958Z,9.11
2023-04-02T03:16:21.561Z,9.05
2023-04-02T03:19:04.988Z,9.02
2023-04-02T03:21:57.406Z,9.03
2023-04-02T03:24:55.096Z,9.06
2023-04-02T03:27:32.609Z,9.05
2023-04-02T03:30:44.567Z,9.00
2023-04-02T03:33:21.231Z,8.99
2023-04-02T03:36:13.588Z,9.04
2023-04-02T03:38:45.015Z,9.05
2023-04-02T03:41:24.458Z,9.04
2023-04-02T03:43:54.786Z,9.03
2023-04-02T03:46:45.025Z,9.05
2023-04-02T03:49:24.985Z,9.10
2023-04-02T03:52:06.514Z,9.15
2023-04-02T03:54:35.100Z,9.18
2023-04-02T03:57:04.211Z,9.16
2023-04-02T03:59:47.183Z,9.15
2023-04-02T04:02:40.576Z,9.17
2023-04-02T04:05:38.141Z,9.18
2023-04-02T04:08:16.202Z,9.14
2023-04-02T04:10:45.959Z,9.09
2023-04-02T04:13:18.138Z,9.10
2023-04-02T04:15:58.351Z,9.16
2023-04-02T04:18:41.675Z,9.16
2023-04-02T04:21:16.460Z,9.17
2023-04-02T04:23:54.154Z,9.21
2023-04-02T04:26:26.738Z,9.22
2023-04-02T04:29:15.387Z,9.22
2023-04-02T04:31:56.820Z,9.21
2023-04-02T04:34:51.673Z,9.19
2023-04-02T04:37:25.487Z,9.16
2023-04-02T04:40:12.399Z,9.16
2023-04-02T04:42:45.954Z,9.21
2023-04-02T04:45:45.591Z,9.25
2023-04-02T04:48:35.126Z,9.26
2023-04-02T04:51:34.038Z,9.23
2023-04-02T04:54:03.270Z,9.24
2023-04-02T04:56:34.934Z,9.27
2023-04-02T04:59:40.514Z,9.30
2023-04-02T05:02:18.150Z,9.32
2023-04-02T05:04:51.712Z,9.30
2023-04-02T05:07:30.662Z,9.29
2023-04-02T05:10:02.318Z,9.32
2023-04-02T05:12:47.701Z,9.33
2023-04-02T05:15:24.805Z,9.34
2023-04-02T05:18:28.703Z,9.35
2023-04-02T05:21:07.307Z,9.35
2023-04-02T05:23:46.967Z,9.40
2023-04-02T05:26:29.884Z,9.42
2023-04-02T05:29:07.591Z,9.40
2023-04-02T05:31:42.791Z,9.42
2023-04-02T05:34:13.444Z,9.44
2023-04-02T05:36:50.881Z,9.44
2023-04-02T05:39:22.395Z,9.47
2023-04-02T05:42:05.146Z,9.52
2023-04-02T05:45:26.269Z,9.52
2023-04-02T05:48:03.178Z,9.58
2023-04-02T05:50:42.630Z,9.60
2023-04-02T05:53:28.163Z,9.62
2023-04-02T05:55:59.336Z,9.63
2023-04-02T05:58:40.048Z,9.59
2023-04-02T06:01:24.919Z,9.54
2023-04-02T06:04:06.887Z,9.55
2023-04-02T06:06:41.690Z,9.56
2023-04-02T06:09:25.675Z,9.55
2023-04-02T06:12:13.881Z,9.54
2023-04-02T06:14:43.389Z,9.56
2023-04-02T06:17:20.492Z,9.56
2023-04-02T06:19:50.189Z,9.57
2023-04-02T06:22:36.891Z,9.57
2023-04-02T06:25:10.889Z,9.57
2023-04-02T06:27:48.524Z,9.58
2023-04-02T06:30:28.616Z,9.64
2023-04-02T06:33:03.182Z,9.71
2023-04-02T06:35:33.901Z,9.68
2023-04-02T06:38:07.371Z,9.66
2023-04-02T06:40:41.916Z,9.66
2023-04-02T06:43:23.567Z,9.68
2023-04-02T06:46:11.259Z,9.72
2023-04-02T06:49:06.127Z,9.72
2023-04-02T06:51:35.712Z,9.75
2023-04-02T06:54:06.756Z,9.77
2023-04-02T06:56:57.665Z,9.77
2023-04-02T06:59:36.075Z,9.73
2023-04-02T07:02:25.066Z,9.72
2023-04-02T07:04:57.296Z,9.75
2023-04-02T07:07:26.622Z,9.75
2023-04-02T07:09:57.867Z,9.74
2023-04-02T07:12:27.270Z,9.71
2023-04-02T07:14:55.772Z,9.69
2023-04-02T07:17:27.319Z,9.64
2023-04-02T07:19:55.893Z,9.60
2023-04-02T07:22:28.223Z,9.59
2023-04-02T07:24:59.507Z,9.60
2023-04-02T07:27:29.229Z,9.62
2023-04-02T07:29:57.628Z,9.63
2023-04-02T07:32:25.761Z,9.62
2023-04-02T07:35:00.839Z,9.58
2023-04-02T07:37:29.734Z,9.57
2023-04-02T07:39:57.913Z,9.60
2023-04-02T07:42:26.419Z,9.64
2023-04-02T07:44:55.212Z,9.66
2023-04-02T07:47:23.308Z,9.70
2023-04-02T07:49:54.760Z,9.75
2023-04-02T07:52:23.151Z,9.79
2023-04-02T07:54:55.876Z,9.87
2023-04-02T07:57:24.534Z,9.93
2023-04-02T07:59:55.589Z,9.95
2023-04-02T08:02:26.822Z,9.94
2023-04-02T08:04:55.853Z,9.95
2023-04-02T08:07:24.436Z,9.99
2023-04-02T08:09:52.608Z,9.99
2023-04-02T08:12:24.568Z,9.95
2023-04-02T08:14:52.765Z,9.96
2023-04-02T08:17:21.246Z,9.97
2023-04-02T08:19:54.986Z,10.00
2023-04-02T08:22:26.613Z,10.01
2023-04-02T08:24:55.212Z,10.00
2023-04-02T08:27:27.674Z,9.99
2023-04-02T08:29:55.953Z,10.00
2023-04-02T08:32:32.816Z,10.01
2023-04-02T08:35:04.705Z,10.01
2023-04-02T08:37:36.396Z,10.01
2023-04-02T08:40:07.384Z,9.98
2023-04-02T08:42:44.944Z,9.99
2023-04-02T08:45:45.066Z,10.01
2023-04-02T08:48:15.291Z,10.06
2023-04-02T08:50:51.232Z,10.11
2023-04-02T08:53:23.065Z,10.17
2023-04-02T08:56:04.046Z,10.19
2023-04-02T08:58:44.374Z,10.22
2023-04-02T09:01:39.610Z,10.26
2023-04-02T09:04:17.779Z,10.27
2023-04-02T09:06:46.774Z,10.24
2023-04-02T09:09:15.859Z,10.18
2023-04-02T09:11:54.463Z,10.13
2023-04-02T09:14:51.413Z,10.13
2023-04-02T09:17:26.191Z,10.14
2023-04-02T09:20:04.169Z,10.13
2023-04-02T09:22:33.234Z,10.10
2023-04-02T09:25:04.964Z,10.07
2023-04-02T09:27:36.870Z,9.99
2023-04-02T09:30:43.834Z,9.94
2023-04-02T09:33:14.314Z,9.95
2023-04-02T09:35:50.625Z,9.97
2023-04-02T09:38:26.720Z,9.99
2023-04-02T09:41:02.215Z,9.95
2023-04-02T09:43:37.915Z,9.92
2023-04-02T09:46:23.904Z,9.92
2023-04-02T09:48:55.934Z,9.95
2023-04-02T09:51:26.052Z,9.98
2023-04-02T09:54:03.569Z,10.00
2023-04-02T09:56:38.069Z,9.98
2023-04-02T09:59:23.460Z,9.95
2023-04-02T10:02:00.324Z,9.97
2023-04-02T10:04:39.297Z,10.01
2023-04-02T10:07:30.904Z,10.01
2023-04-02T10:10:01.035Z,9.99
2023-04-02T10:12:37.079Z,10.00
2023-04-02T10:15:13.615Z,10.06
2023-04-02T10:17:44.521Z,10.13
2023-04-02T10:20:19.489Z,10.19
2023-04-02T10:22:48.155Z,10.20
2023-04-02T10:25:18.282Z,10.20
2023-04-02T10:27:56.324Z,10.13
2023-04-02T10:30:52.207Z,10.05
2023-04-02T10:33:32.504Z,9.99
2023-04-02T10:36:30.657Z,9.94
2023-04-02T10:39:38.746Z,9.91
2023-04-02T10:42:26.076Z,9.83
2023-04-02T10:44:55.477Z,9.75
2023-04-02T10:47:48.074Z,9.73
2023-04-02T10:50:26.849Z,9.71
2023-04-02T10:53:05.768Z,9.75
2023-04-02T10:55:39.906Z,9.73
2023-04-02T10:58:21.535Z,9.67
2023-04-02T11:01:04.600Z,9.65
2023-04-02T11:03:41.821Z,9.68
2023-04-02T11:06:19.260Z,9.69
2023-04-02T11:08:52.638Z,9.66
2023-04-02T11:11:22.872Z,9.64
2023-04-02T11:13:56.669Z,9.64
2023-04-02T11:16:26.288Z,9.65
2023-04-02T11:19:29.209Z,9.62
2023-04-02T11:23:25.203Z,9.63
2023-04-02T11:26:29.428Z,9.56
2023-04-02T11:29:27.326Z,9.55
2023-04-02T11:32:35.355Z,9.53
2023-04-02T11:35:33.709Z,9.53
2023-04-02T11:38:23.898Z,9.58
2023-04-02T11:40:57.266Z,9.66
2023-04-02T11:43:41.633Z,9.69
2023-04-02T11:46:18.860Z,9.67
2023-04-02T11:48:51.040Z,9.66
2023-04-02T11:51:27.873Z,9.71
2023-04-02T11:54:01.456Z,9.79
2023-04-02T12:00:09.187Z,9.94
2023-04-02T12:03:20.299Z,9.93
2023-04-02T12:05:54.796Z,9.94
2023-04-02T12:09:12.754Z,9.99
2023-04-02T12:11:42.695Z,10.05
2023-04-02T12:14:32.463Z,10.04
2023-04-02T12:17:02.796Z,10.01
2023-04-02T12:19:32.525Z,10.00
2023-04-02T12:22:00.710Z,9.97
2023-04-02T12:24:32.880Z,9.92
2023-04-02T12:27:24.758Z,9.89
2023-04-02T12:29:56.261Z,9.90
2023-04-02T12:32:30.017Z,9.94
2023-04-02T12:34:58.678Z,10.01
2023-04-02T12:37:28.797Z,10.07
2023-04-02T12:40:00.297Z,10.09
2023-04-02T12:45:46.036Z,10.05
2023-04-02T12:48:16.798Z,10.08
2023-04-02T12:50:46.255Z,10.09
2023-04-02T12:53:35.738Z,10.11
2023-04-02T12:56:04.906Z,10.10
2023-04-02T12:58:37.504Z,10.11
2023-04-02T13:01:13.694Z,10.17
2023-04-02T13:04:09.666Z,10.24
2023-04-02T13:06:39.694Z,10.26
2023-04-02T13:09:28.485Z,10.25
2023-04-02T13:11:58.505Z,10.20
2023-04-02T13:14:27.191Z,10.15
2023-04-02T13:16:55.920Z,10.16
2023-04-02T13:19:34.087Z,10.17
2023-04-02T13:22:03.182Z,10.12
2023-04-02T13:24:33.672Z,10.04
2023-04-02T13:27:02.893Z,9.97
2023-04-02T13:29:32.937Z,9.93
2023-04-02T13:32:08.741Z,9.92
2023-04-02T13:34:39.825Z,9.90
2023-04-02T13:37:13.854Z,9.88
2023-04-02T13:39:44.198Z,9.83
2023-04-02T13:42:17.004Z,9.78
2023-04-02T13:44:48.865Z,9.76
2023-04-02T13:47:18.566Z,9.80
2023-04-02T13:49:47.987Z,9.83
2023-04-02T13:52:16.763Z,9.81
2023-04-02T13:54:51.642Z,9.78
2023-04-02T13:57:22.387Z,9.73
2023-04-02T13:59:55.243Z,9.70
2023-04-02T14:02:24.967Z,9.68
2023-04-02T14:05:10.149Z,9.70
2023-04-02T14:07:54.395Z,9.72
2023-04-02T14:10:57.593Z,9.69
2023-04-02T14:13:51.158Z,9.64
2023-04-02T14:16:30.244Z,9.60
2023-04-02T14:18:58.759Z,9.58
2023-04-02T14:21:43.528Z,9.61
2023-04-02T14:24:18.868Z,9.63
2023-04-02T14:27:08.871Z,9.59
2023-04-02T14:30:05.597Z,9.53
2023-04-02T14:33:05.950Z,9.51
2023-04-02T14:35:39.263Z,9.55
2023-04-02T14:38:32.894Z,9.59
2023-04-02T14:41:14.581Z,9.62
2023-04-02T14:44:03.746Z,9.59
2023-04-02T14:46:35.529Z,9.51
2023-04-02T14:49:26.902Z,9.42
2023-04-02T14:52:07.126Z,9.33
2023-04-02T14:55:01.196Z,9.30
2023-04-02T14:57:33.036Z,9.25
2023-04-02T15:00:55.304Z,9.16
2023-04-02T15:04:00.384Z,9.02
2023-04-02T15:06:43.178Z,8.97
2023-04-02T15:09:15.377Z,8.93
2023-04-02T15:11:51.846Z,8.91
2023-04-02T15:14:32.136Z,8.86
2023-04-02T15:17:10.856Z,8.79
2023-04-02T15:19:39.458Z,8.78
2023-04-02T15:22:22.584Z,8.79
2023-04-02T15:25:37.242Z,8.78
2023-04-02T15:28:35.203Z,8.74
2023-04-02T15:31:06.647Z,8.71
2023-04-02T15:33:39.472Z,8.73
2023-04-02T15:36:23.218Z,8.74
2023-04-02T15:39:14.191Z,8.79
2023-04-02T15:41:53.732Z,8.82
2023-04-02T15:44:25.486Z,8.81
2023-04-02T15:47:09.238Z,8.76
2023-04-02T15:49:42.909Z,8.70
2023-04-02T15:52:34.787Z,8.68
2023-04-02T15:55:43.860Z,8.66
2023-04-02T15:58:29.852Z,8.62
2023-04-02T16:01:24.316Z,8.65
2023-04-02T16:04:19.566Z,8.72
2023-04-02T16:07:19.900Z,8.78
2023-04-02T16:10:10.193Z,8.81
2023-04-02T16:12:40.656Z,8.76
2023-04-02T16:15:18.205Z,8.70
2023-04-02T16:17:55.361Z,8.66
2023-04-02T16:20:35.681Z,8.66
2023-04-02T16:23:17.583Z,8.71
2023-04-02T16:26:19.303Z,8.71
2023-04-02T16:29:14.760Z,8.68
2023-04-02T16:32:04.336Z,8.61
2023-04-02T16:34:57.637Z,8.60
2023-04-02T16:37:39.083Z,8.61
2023-04-02T16:40:34.227Z,8.64
2023-04-02T16:43:21.580Z,8.66
2023-04-02T16:46:38.909Z,8.63
2023-04-02T16:49:42.809Z,8.58
2023-04-02T16:52:27.000Z,8.60
2023-04-02T16:55:16.683Z,8.67
2023-04-02T16:57:52.635Z,8.72
2023-04-02T17:00:24.994Z,8.76
2023-04-02T17:03:07.836Z,8.77
2023-04-02T17:05:39.687Z,8.81
2023-04-02T17:08:23.868Z,8.86
2023-04-02T17:10:53.960Z,8.87
2023-04-02T17:13:46.807Z,8.82
2023-04-02T17:16:27.721Z,8.75
2023-04-02T17:18:59.946Z,8.69
2023-04-02T17:21:30.180Z,8.69
2023-04-02T17:24:02.290Z,8.68
2023-04-02T17:26:32.837Z,8.66
2023-04-02T17:29:04.805Z,8.60
2023-04-02T17:31:37.653Z,8.54
2023-04-02T17:34:15.061Z,8.51
2023-04-02T17:36:53.783Z,8.52
2023-04-02T17:39:45.111Z,8.53
2023-04-02T17:42:15.867Z,8.51
2023-04-02T17:45:05.526Z,8.46
2023-04-02T17:47:33.844Z,8.38
2023-04-02T17:50:31.370Z,8.34
2023-04-02T17:53:49.536Z,8.32
2023-04-02T17:56:41.134Z,8.32
2023-04-02T17:59:24.106Z,8.23
2023-04-02T18:02:54.005Z,8.14
2023-04-02T18:05:45.945Z,8.05
2023-04-02T18:08:24.453Z,7.97
2023-04-02T18:11:15.056Z,7.92
2023-04-02T18:13:51.543Z,7.82
2023-04-02T18:16:36.757Z,7.77
2023-04-02T18:19:44.072Z,7.80
2023-04-02T18:22:19.698Z,7.81
2023-04-02T18:25:15.024Z,7.78
2023-04-02T18:28:05.016Z,7.76
2023-04-02T18:30:50.205Z,7.77
2023-04-02T18:33:20.483Z,7.81
2023-04-02T18:36:01.881Z,7.78
2023-04-02T18:38:45.715Z,7.71
2023-04-02T18:41:39.081Z,7.65
2023-04-02T18:44:27.748Z,7.62
2023-04-02T18:47:17.493Z,7.63
2023-04-02T18:50:00.735Z,7.65
2023-04-02T18:52:30.867Z,7.65
2023-04-02T18:55:14.029Z,7.64
2023-04-02T18:57:43.162Z,7.60
2023-04-02T19:00:22.557Z,7.60
2023-04-02T19:03:02.966Z,7.61
2023-04-02T19:05:35.741Z,7.61
2023-04-02T19:08:22.033Z,7.61
2023-04-02T19:11:01.782Z,7.55
2023-04-02T19:13:33.744Z,7.50
2023-04-02T19:16:15.032Z,7.51
2023-04-02T19:18:53.670Z,7.48
2023-04-02T19:22:00.214Z,7.46
2023-04-02T19:24:47.533Z,7.44
2023-04-02T19:27:54.105Z,7.44
2023-04-02T19:30:57.922Z,7.46
2023-04-02T19:33:43.610Z,7.43
2023-04-02T19:36:33.380Z,7.35
2023-04-02T19:39:17.299Z,7.29
2023-04-02T19:42:08.513Z,7.28
2023-04-02T19:44:38.919Z,7.29
2023-04-02T19:47:13.871Z,7.29
2023-04-02T19:49:42.216Z,7.28
2023-04-02T19:52:11.241Z,7.25
2023-04-02T19:54:40.033Z,7.23
2023-04-02T19:57:12.845Z,7.26
2023-04-02T19:59:44.323Z,7.30
2023-04-02T20:02:12.813Z,7.32
2023-04-02T20:04:42.720Z,7.32
2023-04-02T20:07:13.148Z,7.29
2023-04-02T20:09:43.785Z,7.26
2023-04-02T20:12:13.673Z,7.26
2023-04-02T20:14:42.076Z,7.28
2023-04-02T20:17:17.005Z,7.33
2023-04-02T20:19:47.086Z,7.36
2023-04-02T20:22:21.240Z,7.37
2023-04-02T20:24:52.268Z,7.35
2023-04-02T20:27:23.407Z,7.32
2023-04-02T20:29:54.039Z,7.33
2023-04-02T20:32:23.028Z,7.34
2023-04-02T20:34:51.618Z,7.37
2023-04-02T20:37:20.724Z,7.35
2023-04-02T20:39:54.624Z,7.30
2023-04-02T20:42:23.016Z,7.27
2023-04-02T20:44:55.408Z,7.28
2023-04-02T20:47:27.525Z,7.30
2023-04-02T20:49:57.767Z,7.33
2023-04-02T20:52:32.420Z,7.33
2023-04-02T20:55:01.906Z,7.31
2023-04-02T20:57:36.907Z,7.26
2023-04-02T21:00:08.376Z,7.25
2023-04-02T21:02:39.191Z,7.25
2023-04-02T21:05:09.233Z,7.27
2023-04-02T21:07:38.546Z,7.29
2023-04-02T21:10:10.825Z,7.29
2023-04-02T21:12:41.034Z,7.30
2023-04-02T21:15:16.717Z,7.31
2023-04-02T21:17:45.719Z,7.34
2023-04-02T21:20:14.671Z,7.31
2023-04-02T21:22:43.252Z,7.26
2023-04-02T21:25:14.514Z,7.20
2023-04-02T21:27:45.658Z,7.18
2023-04-02T21:30:19.446Z,7.18
2023-04-02T21:32:50.533Z,7.18
2023-04-02T21:35:23.064Z,7.15
2023-04-02T21:37:55.238Z,7.09
2023-04-02T21:40:29.757Z,7.05
2023-04-02T21:42:59.878Z,7.04
2023-04-02T21:45:38.261Z,7.07
2023-04-02T21:48:13.633Z,7.09
2023-04-02T21:50:44.263Z,7.08
2023-04-02T21:53:16.969Z,7.03
2023-04-02T21:55:52.903Z,6.98
2023-04-02T21:58:23.228Z,6.95
2023-04-02T22:00:52.658Z,6.94
2023-04-02T22:03:41.335Z,6.94
2023-04-02T22:06:20.747Z,6.87
2023-04-02T22:08:57.021Z,6.80
2023-04-02T22:11:37.280Z,6.73
2023-04-02T22:14:06.261Z,6.72
2023-04-02T22:16:47.125Z,6.78
2023-04-02T22:19:16.132Z,6.86
2023-04-02T22:21:49.623Z,6.93
2023-04-02T22:24:25.438Z,6.96
2023-04-02T22:26:55.982Z,7.00
2023-04-02T22:29:24.459Z,7.06
2023-04-02T22:31:55.621Z,7.15
2023-04-02T22:34:25.538Z,7.22
2023-04-02T22:36:57.196Z,7.25
2023-04-02T22:39:26.596Z,7.24
2023-04-02T22:41:57.228Z,7.22
2023-04-02T22:44:29.300Z,7.24
2023-04-02T22:46:59.004Z,7.29
2023-04-02T22:49:30.250Z,7.32
2023-04-02T22:52:07.343Z,7.31
2023-04-02T22:54:35.916Z,7.29
2023-04-02T22:57:06.833Z,7.27
2023-04-02T22:59:39.447Z,7.24
2023-04-02T23:02:07.814Z,7.23
2023-04-02T23:04:39.190Z,7.25
2023-04-02T23:07:08.360Z,7.26
2023-04-02T23:09:43.400Z,7.26
2023-04-02T23:12:23.633Z,7.25
2023-04-02T23:14:52.962Z,7.20
2023-04-02T23:17:33.835Z,7.13
2023-04-02T23:20:07.318Z,7.08
2023-04-02T23:22:38.783Z,7.05
2023-04-02T23:25:08.180Z,7.06
2023-04-02T23:27:37.333Z,7.08
2023-04-02T23:30:16.818Z,7.08
2023-04-02T23:32:56.174Z,7.04
2023-04-02T23:35:46.562Z,6.99
2023-04-02T23:38:43.233Z,6.98
2023-04-02T23:42:43.540Z,7.06
2023-04-02T23:45:30.343Z,7.06
2023-04-02T23:48:18.400Z,7.03
2023-04-02T23:51:25.779Z,6.98
2023-04-02T23:54:19.648Z,6.99
2023-04-02T23:56:55.076Z,7.03
2023-04-02T23:59:35.802Z,7.08
